Time;durP1;ratioP1;P1;durP2;ratioP2;P2;SDS_P1;SDS_P2;PMS_P1;PMS_P2;Temp;Humidity;BMP_temperature;BMP_pressure;BME280_temperature;BME280_humidity;BME280_pressure;Samples;Min_cycle;Max_cycle;Signal;HPM_P1;HPM_P2
2023/11/12 00:00:54;;;;;;;8.03;6.50;;;;;;;;;;5114064;28;20875;-59
2023/11/12 00:03:21;;;;;;;6.20;5.70;;;;;;;;;;5113589;28;20464;-59
2023/11/12 00:05:50;;;;;;;7.97;6.90;;;;;;;;;;5113855;28;20448;-59
2023/11/12 00:08:19;;;;;;;7.90;6.50;;;;;;;;;;5113796;28;20446;-59
2023/11/12 00:10:46;;;;;;;7.30;6.60;;;;;;;;;;5114002;28;20485;-59
2023/11/12 00:13:14;;;;;;;7.97;7.27;;;;;;;;;;5113875;28;20483;-60
2023/11/12 00:15:41;;;;;;;6.80;6.17;;;;;;;;;;5113680;28;21026;-59
2023/11/12 00:18:08;;;;;;;9.10;7.00;;;;;;;;;;5113749;28;20443;-59
2023/11/12 00:20:34;;;;;;;8.93;6.90;;;;;;;;;;5113643;28;20494;-59
2023/11/12 00:23:01;;;;;;;6.80;6.20;;;;;;;;;;5113536;28;20947;-59
2023/11/12 00:25:30;;;;;;;7.20;6.50;;;;;;;;;;5113813;28;20438;-59
2023/11/12 00:27:57;;;;;;;7.17;6.50;;;;;;;;;;5113721;28;20619;-59
2023/11/12 00:30:24;;;;;;;6.80;6.20;;;;;;;;;;5113771;28;20489;-59
2023/11/12 00:32:51;;;;;;;7.57;6.87;;;;;;;;;;5113504;28;20533;-59
2023/11/12 00:35:18;;;;;;;8.40;7.23;;;;;;;;;;5113479;28;20445;-59
2023/11/12 00:37:46;;;;;;;7.57;6.13;;;;;;;;;;5113389;28;20442;-59
2023/11/12 00:40:14;;;;;;;7.57;6.87;;;;;;;;;;5113561;28;20441;-59
2023/11/12 00:42:43;;;;;;;7.90;7.20;;;;;;;;;;5113498;28;20456;-59
2023/11/12 00:45:10;;;;;;;7.37;6.67;;;;;;;;;;5113518;28;20546;-59
2023/11/12 00:47:37;;;;;;;8.07;7.23;;;;;;;;;;5113395;28;20524;-59
2023/11/12 00:50:04;;;;;;;7.23;6.57;;;;;;;;;;5113246;28;20512;-59
2023/11/12 00:52:31;;;;;;;8.97;7.87;;;;;;;;;;5113440;28;20445;-59
2023/11/12 00:54:58;;;;;;;8.93;7.70;;;;;;;;;;5113406;28;20556;-59
2023/11/12 00:57:25;;;;;;;7.70;7.00;;;;;;;;;;5113586;28;20540;-59
2023/11/12 00:59:53;;;;;;;8.90;7.50;;;;;;;;;;5113240;28;20537;-59
2023/11/12 01:02:20;;;;;;;8.10;7.30;;;;;;;;;;5113225;28;20538;-60
2023/11/12 01:04:47;;;;;;;7.70;7.00;;;;;;;;;;5113158;28;20782;-59
2023/11/12 01:07:14;;;;;;;8.23;7.30;;;;;;;;;;5113383;28;20477;-59
2023/11/12 01:09:41;;;;;;;9.60;7.93;;;;;;;;;;5113196;28;20487;-59
2023/11/12 01:12:09;;;;;;;9.00;8.13;;;;;;;;;;5113206;28;20602;-59
2023/11/12 01:14:36;;;;;;;8.50;7.60;;;;;;;;;;5113772;28;20448;-59
2023/11/12 01:17:05;;;;;;;8.93;8.03;;;;;;;;;;5117036;28;20437;-59
2023/11/12 01:19:32;;;;;;;10.17;8.10;;;;;;;;;;5117261;28;20453;-59
2023/11/12 01:21:59;;;;;;;8.43;6.93;;;;;;;;;;5117364;28;20536;-60
2023/11/12 01:24:26;;;;;;;7.67;6.97;;;;;;;;;;5117103;28;20445;-59
2023/11/12 01:26:53;;;;;;;8.47;7.63;;;;;;;;;;5116944;28;20438;-59
2023/11/12 01:29:20;;;;;;;10.80;7.97;;;;;;;;;;5116786;28;20534;-59
2023/11/12 01:31:47;;;;;;;8.57;7.87;;;;;;;;;;5117022;28;20477;-59
2023/11/12 01:34:16;;;;;;;8.90;7.60;;;;;;;;;;5117148;28;20442;-59
2023/11/12 01:36:43;;;;;;;7.23;6.57;;;;;;;;;;5116713;28;20932;-59
2023/11/12 01:39:10;;;;;;;8.03;7.10;;;;;;;;;;5116748;28;20441;-59
2023/11/12 01:41:37;;;;;;;7.80;7.10;;;;;;;;;;5116744;28;20457;-59
2023/11/12 01:44:04;;;;;;;7.90;7.10;;;;;;;;;;5116651;28;20466;-59
2023/11/12 01:46:31;;;;;;;8.23;7.33;;;;;;;;;;5116703;28;20440;-59
2023/11/12 01:48:58;;;;;;;8.27;7.47;;;;;;;;;;5116667;28;20476;-59
2023/11/12 01:51:27;;;;;;;7.53;6.73;;;;;;;;;;5116560;28;20441;-60
2023/11/12 01:53:55;;;;;;;6.70;6.10;;;;;;;;;;5116643;28;21000;-59
2023/11/12 01:56:22;;;;;;;7.30;6.70;;;;;;;;;;5116335;28;20442;-59
2023/11/12 01:58:51;;;;;;;7.60;6.83;;;;;;;;;;5116331;28;20442;-59
2023/11/12 02:01:18;;;;;;;6.90;6.30;;;;;;;;;;5116430;28;20450;-59
2023/11/12 02:03:45;;;;;;;7.13;6.43;;;;;;;;;;5116586;28;20433;-59
2023/11/12 02:06:12;;;;;;;7.27;6.50;;;;;;;;;;5116259;28;20452;-59
2023/11/12 02:08:41;;;;;;;7.13;6.43;;;;;;;;;;5116187;28;20524;-59
2023/11/12 02:11:09;;;;;;;7.20;6.60;;;;;;;;;;5115977;28;20534;-59
2023/11/12 02:13:36;;;;;;;7.53;6.83;;;;;;;;;;5115999;28;20939;-59
2023/11/12 02:16:03;;;;;;;8.60;6.00;;;;;;;;;;5116204;28;20533;-59
2023/11/12 02:18:30;;;;;;;7.63;6.97;;;;;;;;;;5116107;28;20480;-59
2023/11/12 02:20:57;;;;;;;7.90;6.90;;;;;;;;;;5115970;28;20529;-59
2023/11/12 02:23:24;;;;;;;7.77;7.07;;;;;;;;;;5115906;28;20442;-59
2023/11/12 02:25:53;;;;;;;7.03;6.43;;;;;;;;;;5115425;28;20441;-59
2023/11/12 02:28:20;;;;;;;6.70;6.10;;;;;;;;;;5115934;28;20537;-59
2023/11/12 02:30:47;;;;;;;7.27;6.57;;;;;;;;;;5115700;28;20516;-59
2023/11/12 02:33:14;;;;;;;7.30;6.70;;;;;;;;;;5115712;28;20489;-59
2023/11/12 02:35:43;;;;;;;5.73;5.23;;;;;;;;;;5115688;28;20551;-59
2023/11/12 02:38:11;;;;;;;6.17;5.57;;;;;;;;;;5115596;28;21048;-60
2023/11/12 02:40:38;;;;;;;7.40;6.70;;;;;;;;;;5115809;28;20869;-59
2023/11/12 02:43:07;;;;;;;7.77;7.07;;;;;;;;;;5115732;28;20443;-59
2023/11/12 02:45:33;;;;;;;8.17;6.03;;;;;;;;;;5115367;28;20808;-59
2023/11/12 02:48:01;;;;;;;8.70;6.70;;;;;;;;;;5115428;28;20654;-59
2023/11/12 02:50:30;;;;;;;7.70;7.00;;;;;;;;;;5115285;28;20477;-59
2023/11/12 02:52:59;;;;;;;7.70;6.90;;;;;;;;;;5115245;28;20448;-59
2023/11/12 02:55:27;;;;;;;7.00;6.40;;;;;;;;;;5115390;28;20445;-59
2023/11/12 02:57:53;;;;;;;9.07;7.50;;;;;;;;;;5115357;28;20541;-59
2023/11/12 03:00:22;;;;;;;7.00;6.47;;;;;;;;;;5115194;28;20446;-59
2023/11/12 03:02:49;;;;;;;9.40;6.40;;;;;;;;;;5115295;28;20839;-59
2023/11/12 03:05:16;;;;;;;7.47;6.70;;;;;;;;;;5114923;28;20533;-60
2023/11/12 03:07:43;;;;;;;6.67;6.07;;;;;;;;;;5114934;28;20472;-59
2023/11/12 03:10:10;;;;;;;7.33;6.33;;;;;;;;;;5115017;28;20559;-59
2023/11/12 03:12:38;;;;;;;7.17;6.43;;;;;;;;;;5115186;28;20533;-59
2023/11/12 03:15:06;;;;;;;6.80;6.20;;;;;;;;;;5114953;28;20452;-59
2023/11/12 03:17:35;;;;;;;6.93;6.33;;;;;;;;;;5114943;28;20438;-59
2023/11/12 03:20:04;;;;;;;9.40;6.77;;;;;;;;;;5114939;28;20441;-59
2023/11/12 03:22:31;;;;;;;7.20;6.50;;;;;;;;;;5114918;28;21016;-59
2023/11/12 03:24:58;;;;;;;7.80;7.10;;;;;;;;;;5114771;28;20442;-59
2023/11/12 03:27:26;;;;;;;9.87;6.50;;;;;;;;;;5114772;28;20789;-59
2023/11/12 03:29:53;;;;;;;7.60;6.90;;;;;;;;;;5114527;28;20556;-59
2023/11/12 03:32:21;;;;;;;6.53;5.87;;;;;;;;;;5114526;28;20441;-59
2023/11/12 03:34:50;;;;;;;6.00;5.40;;;;;;;;;;5114407;28;20790;-59
2023/11/12 03:37:19;;;;;;;6.60;6.00;;;;;;;;;;5113893;28;20450;-59
2023/11/12 03:39:46;;;;;;;7.27;6.53;;;;;;;;;;5114479;28;20442;-59
2023/11/12 03:42:13;;;;;;;5.90;5.40;;;;;;;;;;5114420;28;20528;-59
2023/11/12 03:44:40;;;;;;;6.90;6.20;;;;;;;;;;5114400;28;20519;-59
2023/11/12 03:47:07;;;;;;;6.20;5.43;;;;;;;;;;5114158;28;20438;-59
2023/11/12 03:49:35;;;;;;;6.60;6.00;;;;;;;;;;5114495;28;20469;-59
2023/11/12 03:52:04;;;;;;;6.03;5.53;;;;;;;;;;5114342;28;20499;-59
2023/11/12 03:54:31;;;;;;;9.03;7.20;;;;;;;;;;5114192;28;20445;-59
2023/11/12 03:56:58;;;;;;;6.57;5.97;;;;;;;;;;5114053;28;20514;-59
2023/11/12 03:59:25;;;;;;;7.10;6.40;;;;;;;;;;5114007;28;20438;-59
2023/11/12 04:01:52;;;;;;;7.13;6.50;;;;;;;;;;5113907;28;20442;-60
2023/11/12 04:04:19;;;;;;;7.10;6.27;;;;;;;;;;5114371;28;20528;-59
2023/11/12 04:06:46;;;;;;;6.53;6.00;;;;;;;;;;5114072;28;20525;-59
2023/11/12 04:09:14;;;;;;;7.07;6.37;;;;;;;;;;5114048;28;20513;-59
2023/11/12 04:11:41;;;;;;;6.23;5.73;;;;;;;;;;5114042;28;20542;-59
2023/11/12 04:14:08;;;;;;;7.87;6.70;;;;;;;;;;5113761;28;20446;-59
2023/11/12 04:16:35;;;;;;;6.80;6.20;;;;;;;;;;5113940;28;20437;-59
2023/11/12 04:19:02;;;;;;;9.17;6.60;;;;;;;;;;5113856;28;20929;-59
2023/11/12 04:21:30;;;;;;;7.43;6.70;;;;;;;;;;5113508;28;20449;-59
2023/11/12 04:23:56;;;;;;;7.60;6.90;;;;;;;;;;5113611;28;20945;-59
2023/11/12 04:26:25;;;;;;;6.93;6.00;;;;;;;;;;5113590;28;20442;-59
2023/11/12 04:28:54;;;;;;;6.80;6.20;;;;;;;;;;5113488;28;20453;-59
2023/11/12 04:31:21;;;;;;;7.33;6.70;;;;;;;;;;5113634;28;20538;-59
2023/11/12 04:33:48;;;;;;;7.40;6.70;;;;;;;;;;5113645;28;20484;-59
2023/11/12 04:36:15;;;;;;;7.43;6.73;;;;;;;;;;5113582;28;20537;-59
2023/11/12 04:38:43;;;;;;;7.00;6.30;;;;;;;;;;5113468;28;20491;-59
2023/11/12 04:41:11;;;;;;;7.07;6.30;;;;;;;;;;5113375;28;20839;-60
2023/11/12 04:43:41;;;;;;;6.77;6.17;;;;;;;;;;5113438;28;20473;-59
2023/11/12 04:46:08;;;;;;;8.00;6.90;;;;;;;;;;5113532;28;20445;-60
2023/11/12 04:48:34;;;;;;;6.73;6.13;;;;;;;;;;5114172;28;20502;-59
2023/11/12 04:51:02;;;;;;;7.93;7.23;;;;;;;;;;5117599;28;20548;-59
2023/11/12 04:53:29;;;;;;;7.07;6.47;;;;;;;;;;5117690;28;20476;-60
2023/11/12 04:55:56;;;;;;;7.40;6.70;;;;;;;;;;5117558;28;20536;-60
2023/11/12 04:58:23;;;;;;;7.53;6.90;;;;;;;;;;5117630;28;20437;-59
2023/11/12 05:00:52;;;;;;;7.63;6.83;;;;;;;;;;5117549;28;20445;-59
2023/11/12 05:03:20;;;;;;;7.30;6.60;;;;;;;;;;5117539;28;20528;-59
2023/11/12 05:05:47;;;;;;;7.00;6.40;;;;;;;;;;5117410;28;20437;-59
2023/11/12 05:08:14;;;;;;;7.10;6.40;;;;;;;;;;5118069;28;20443;-60
2023/11/12 05:10:41;;;;;;;7.00;6.30;;;;;;;;;;5117113;28;20512;-59
2023/11/12 05:13:08;;;;;;;8.10;7.30;;;;;;;;;;5117382;28;20441;-59
2023/11/12 05:15:35;;;;;;;7.10;6.50;;;;;;;;;;5117275;28;20444;-59
2023/11/12 05:18:06;;;;;;;7.77;7.00;;;;;;;;;;5117328;28;20987;-59
2023/11/12 05:20:33;;;;;;;8.23;7.47;;;;;;;;;;5117089;28;20498;-59
2023/11/12 05:23:00;;;;;;;7.90;6.50;;;;;;;;;;5116874;28;20847;-59
2023/11/12 05:25:27;;;;;;;9.43;8.50;;;;;;;;;;5117113;28;20441;-59
2023/11/12 05:27:54;;;;;;;7.47;6.77;;;;;;;;;;5117296;28;20556;-59
2023/11/12 05:30:23;;;;;;;8.27;7.30;;;;;;;;;;5116915;28;20473;-59
2023/11/12 05:32:49;;;;;;;7.60;6.63;;;;;;;;;;5116795;28;20437;-59
2023/11/12 05:35:19;;;;;;;6.83;6.23;;;;;;;;;;5116763;28;20805;-59
2023/11/12 05:37:47;;;;;;;8.10;7.30;;;;;;;;;;5116912;28;20585;-59
2023/11/12 05:40:14;;;;;;;8.13;7.43;;;;;;;;;;5116843;28;20514;-59
2023/11/12 05:42:41;;;;;;;8.10;7.30;;;;;;;;;;5116766;28;20445;-59
2023/11/12 05:45:08;;;;;;;8.43;7.63;;;;;;;;;;5116692;28;20526;-59
2023/11/12 05:47:35;;;;;;;10.40;7.83;;;;;;;;;;5116583;28;20452;-59
2023/11/12 05:50:02;;;;;;;9.93;7.50;;;;;;;;;;5116444;28;20441;-59
2023/11/12 05:52:30;;;;;;;7.90;7.20;;;;;;;;;;5116596;28;20903;-59
2023/11/12 05:54:57;;;;;;;7.93;7.23;;;;;;;;;;5116593;28;20441;-59
2023/11/12 05:57:24;;;;;;;8.80;7.13;;;;;;;;;;5116530;28;20437;-59
2023/11/12 05:59:51;;;;;;;7.87;7.17;;;;;;;;;;5116438;28;20592;-59
2023/11/12 06:02:18;;;;;;;7.03;6.43;;;;;;;;;;5115811;28;20479;-59
2023/11/12 06:04:45;;;;;;;9.70;7.40;;;;;;;;;;5116715;28;20444;-60
2023/11/12 06:07:12;;;;;;;9.33;8.43;;;;;;;;;;5116341;28;20438;-59
2023/11/12 06:09:40;;;;;;;8.30;7.53;;;;;;;;;;5116331;28;20444;-59
2023/11/12 06:12:08;;;;;;;8.77;6.40;;;;;;;;;;5116218;28;20566;-59
2023/11/12 06:14:36;;;;;;;8.40;7.50;;;;;;;;;;5116097;28;20872;-59
2023/11/12 06:17:04;;;;;;;7.57;6.97;;;;;;;;;;5115976;28;20529;-59
2023/11/12 06:19:31;;;;;;;8.50;7.70;;;;;;;;;;5116143;28;20879;-59
2023/11/12 06:22:00;;;;;;;8.17;7.37;;;;;;;;;;5116278;28;20449;-60
2023/11/12 06:24:26;;;;;;;9.33;7.40;;;;;;;;;;5115953;28;20446;-59
2023/11/12 06:26:55;;;;;;;7.90;7.03;;;;;;;;;;5115895;28;20496;-59
2023/11/12 06:29:23;;;;;;;9.17;8.27;;;;;;;;;;5115739;28;20446;-60
2023/11/12 06:31:51;;;;;;;8.23;7.47;;;;;;;;;;5115530;28;20477;-59
2023/11/12 06:34:18;;;;;;;10.63;7.90;;;;;;;;;;5115882;28;20864;-59
2023/11/12 06:36:45;;;;;;;8.70;7.80;;;;;;;;;;5115524;28;20949;-59
2023/11/12 06:39:13;;;;;;;8.70;7.70;;;;;;;;;;5115733;28;20997;-60
2023/11/12 06:41:40;;;;;;;8.90;8.10;;;;;;;;;;5115576;28;20849;-59
2023/11/12 06:44:09;;;;;;;9.03;8.20;;;;;;;;;;5115263;28;20560;-59
2023/11/12 06:46:36;;;;;;;9.67;8.87;;;;;;;;;;5115826;28;20448;-59
2023/11/12 06:49:04;;;;;;;10.10;9.10;;;;;;;;;;5115362;28;20528;-60
2023/11/12 06:51:31;;;;;;;9.77;8.77;;;;;;;;;;5115317;28;20481;-59
2023/11/12 06:53:58;;;;;;;10.30;9.23;;;;;;;;;;5115375;27;20475;-59
2023/11/12 06:56:25;;;;;;;9.03;8.13;;;;;;;;;;5115296;28;20441;-59
2023/11/12 06:58:53;;;;;;;8.40;7.60;;;;;;;;;;5115011;28;20532;-59
2023/11/12 07:01:22;;;;;;;10.30;9.40;;;;;;;;;;5115283;28;20449;-59
2023/11/12 07:03:50;;;;;;;8.90;8.00;;;;;;;;;;5115340;28;20445;-59
2023/11/12 07:06:17;;;;;;;9.53;8.20;;;;;;;;;;5115068;28;20802;-59
2023/11/12 07:08:44;;;;;;;8.77;7.97;;;;;;;;;;5115016;28;20449;-59
2023/11/12 07:11:11;;;;;;;13.07;8.47;;;;;;;;;;5114727;28;20552;-59
2023/11/12 07:13:38;;;;;;;10.70;9.57;;;;;;;;;;5114250;28;20442;-60
2023/11/12 07:16:05;;;;;;;8.67;7.90;;;;;;;;;;5114951;28;20540;-59
2023/11/12 07:18:33;;;;;;;9.20;7.83;;;;;;;;;;5114660;28;20925;-60
2023/11/12 07:21:00;;;;;;;9.43;8.53;;;;;;;;;;5115010;28;20438;-59
2023/11/12 07:23:27;;;;;;;9.50;8.60;;;;;;;;;;5114716;28;20936;-59
2023/11/12 07:25:54;;;;;;;8.40;7.60;;;;;;;;;;5114527;28;20441;-59
2023/11/12 07:28:21;;;;;;;7.73;7.10;;;;;;;;;;5114787;28;20441;-59
2023/11/12 07:30:48;;;;;;;9.37;7.47;;;;;;;;;;5114611;28;21009;-59
2023/11/12 07:33:15;;;;;;;9.40;8.50;;;;;;;;;;5114557;28;20448;-59
2023/11/12 07:35:43;;;;;;;8.70;7.80;;;;;;;;;;5114474;28;20800;-59
2023/11/12 07:38:10;;;;;;;10.33;8.90;;;;;;;;;;5114367;28;20544;-59
2023/11/12 07:40:37;;;;;;;8.93;8.13;;;;;;;;;;5114237;28;20450;-59
2023/11/12 07:43:05;;;;;;;9.37;8.47;;;;;;;;;;5114232;28;20451;-60
2023/11/12 07:45:31;;;;;;;9.30;8.30;;;;;;;;;;5114439;28;20870;-59
2023/11/12 07:47:58;;;;;;;9.40;8.40;;;;;;;;;;5114344;28;20525;-59
2023/11/12 07:50:25;;;;;;;10.30;8.27;;;;;;;;;;5114275;28;20865;-59
2023/11/12 07:52:53;;;;;;;8.90;8.10;;;;;;;;;;5113965;28;20481;-59
2023/11/12 07:55:20;;;;;;;7.50;6.80;;;;;;;;;;5114351;28;20519;-59
2023/11/12 07:57:48;;;;;;;9.50;8.53;;;;;;;;;;5114179;28;20444;-59
2023/11/12 08:00:15;;;;;;;8.30;7.50;;;;;;;;;;5114106;28;20442;-59
2023/11/12 08:02:42;;;;;;;8.03;7.33;;;;;;;;;;5114027;28;20537;-60
2023/11/12 08:05:10;;;;;;;8.80;7.90;;;;;;;;;;5113924;28;20477;-59
2023/11/12 08:07:37;;;;;;;7.70;7.10;;;;;;;;;;5113754;28;20936;-59
2023/11/12 08:10:08;;;;;;;8.10;7.40;;;;;;;;;;5113940;28;20532;-60
2023/11/12 08:12:35;;;;;;;9.53;7.17;;;;;;;;;;5113813;28;20481;-60
2023/11/12 08:15:02;;;;;;;8.07;7.37;;;;;;;;;;5113796;28;20532;-59
2023/11/12 08:17:30;;;;;;;7.90;7.10;;;;;;;;;;5113783;28;20449;-59
2023/11/12 08:19:57;;;;;;;8.13;7.33;;;;;;;;;;5113582;28;20529;-60
2023/11/12 08:22:24;;;;;;;7.43;6.00;;;;;;;;;;5113862;28;20519;-59
2023/11/12 08:24:53;;;;;;;6.87;6.27;;;;;;;;;;5113629;28;20955;-59
2023/11/12 08:27:22;;;;;;;6.83;6.13;;;;;;;;;;5113659;28;20441;-59
2023/11/12 08:29:49;;;;;;;7.30;6.70;;;;;;;;;;5113874;28;20532;-59
2023/11/12 08:32:16;;;;;;;6.87;6.27;;;;;;;;;;5113703;28;20477;-60
2023/11/12 08:34:43;;;;;;;6.63;6.03;;;;;;;;;;5113382;28;20880;-59
2023/11/12 08:37:10;;;;;;;8.13;6.67;;;;;;;;;;5113455;28;20956;-59
2023/11/12 08:39:37;;;;;;;6.60;6.00;;;;;;;;;;5113497;28;20437;-59
2023/11/12 08:42:04;;;;;;;7.27;6.57;;;;;;;;;;5113423;28;20470;-60
2023/11/12 08:44:33;;;;;;;7.13;6.53;;;;;;;;;;5113318;28;20829;-59
2023/11/12 08:47:01;;;;;;;8.40;7.00;;;;;;;;;;5113292;28;20429;-59
2023/11/12 08:49:30;;;;;;;9.40;7.67;;;;;;;;;;5113504;28;20525;-59
2023/11/12 08:51:57;;;;;;;7.40;6.70;;;;;;;;;;5113401;28;20482;-59
2023/11/12 08:54:25;;;;;;;7.07;6.47;;;;;;;;;;5113412;28;20442;-59
2023/11/12 08:56:53;;;;;;;6.40;5.80;;;;;;;;;;5113266;28;20449;-59
2023/11/12 08:59:20;;;;;;;5.47;4.97;;;;;;;;;;5113278;28;20790;-59
2023/11/12 09:01:48;;;;;;;5.33;4.93;;;;;;;;;;5113126;28;20452;-59
2023/11/12 09:04:15;;;;;;;5.97;5.10;;;;;;;;;;5113239;28;20442;-60
2023/11/12 09:06:42;;;;;;;6.17;5.67;;;;;;;;;;5113245;28;20800;-59
2023/11/12 09:09:09;;;;;;;6.13;5.53;;;;;;;;;;5113221;28;20440;-59
2023/11/12 09:11:36;;;;;;;4.70;4.40;;;;;;;;;;5113033;28;20438;-59
2023/11/12 09:14:05;;;;;;;5.07;4.67;;;;;;;;;;5112861;28;20531;-60
2023/11/12 09:16:32;;;;;;;6.00;5.00;;;;;;;;;;5113192;28;20477;-59
2023/11/12 09:19:00;;;;;;;5.50;5.10;;;;;;;;;;5113160;28;20441;-60
2023/11/12 09:21:31;;;;;;;6.37;5.77;;;;;;;;;;5113081;28;20460;-60
2023/11/12 09:23:58;;;;;;;5.30;4.80;;;;;;;;;;5113220;28;20449;-60
2023/11/12 09:26:25;;;;;;;5.70;5.20;;;;;;;;;;5112951;28;20518;-60
2023/11/12 09:28:52;;;;;;;5.57;5.07;;;;;;;;;;5113129;28;20447;-60
2023/11/12 09:31:19;;;;;;;7.60;6.90;;;;;;;;;;5113088;28;20521;-60
2023/11/12 09:33:46;;;;;;;5.23;4.67;;;;;;;;;;5112957;28;20547;-60
2023/11/12 09:36:15;;;;;;;5.50;5.10;;;;;;;;;;5114484;28;20924;-60
2023/11/12 09:38:42;;;;;;;4.83;4.50;;;;;;;;;;5116696;28;20529;-60
2023/11/12 09:41:10;;;;;;;5.67;5.17;;;;;;;;;;5116663;28;20540;-60
2023/11/12 09:43:37;;;;;;;7.87;5.33;;;;;;;;;;5116779;28;20468;-60
2023/11/12 09:46:06;;;;;;;6.00;5.50;;;;;;;;;;5116744;28;20891;-60
2023/11/12 09:48:35;;;;;;;5.10;4.70;;;;;;;;;;5116557;28;20462;-60
2023/11/12 09:51:03;;;;;;;4.73;4.33;;;;;;;;;;5116666;28;20456;-60
2023/11/12 09:53:31;;;;;;;5.50;5.00;;;;;;;;;;5116387;28;20484;-60
2023/11/12 09:55:58;;;;;;;4.03;3.80;;;;;;;;;;5116289;28;20448;-60
2023/11/12 09:58:25;;;;;;;4.57;4.27;;;;;;;;;;5116480;28;20933;-60
2023/11/12 10:00:56;;;;;;;5.77;3.40;;;;;;;;;;5116407;28;20541;-60
2023/11/12 10:03:23;;;;;;;2.20;2.00;;;;;;;;;;5116273;28;20450;-60
2023/11/12 10:05:50;;;;;;;2.33;2.13;;;;;;;;;;5116287;28;20441;-60
2023/11/12 10:08:18;;;;;;;3.60;3.30;;;;;;;;;;5116185;28;20532;-60
2023/11/12 10:10:47;;;;;;;4.30;4.00;;;;;;;;;;5116281;28;20484;-60
2023/11/12 10:13:14;;;;;;;3.20;2.90;;;;;;;;;;5116027;28;20534;-60
2023/11/12 10:15:41;;;;;;;2.37;2.27;;;;;;;;;;5115965;28;20438;-60
2023/11/12 10:18:09;;;;;;;3.50;3.20;;;;;;;;;;5116031;28;20977;-60
2023/11/12 10:20:38;;;;;;;3.93;3.63;;;;;;;;;;5115949;28;20524;-60
2023/11/12 10:23:06;;;;;;;4.07;3.77;;;;;;;;;;5115767;28;20478;-60
2023/11/12 10:25:37;;;;;;;4.10;3.80;;;;;;;;;;5116043;28;21003;-60
2023/11/12 10:28:07;;;;;;;3.20;3.00;;;;;;;;;;5115879;28;20442;-60
2023/11/12 10:30:34;;;;;;;2.60;2.40;;;;;;;;;;5115667;28;20442;-60
2023/11/12 10:33:23;;;;;;;3.40;2.13;;;;;;;;;;5115569;28;20564;-60
2023/11/12 10:35:50;;;;;;;3.53;2.20;;;;;;;;;;5115876;28;20504;-60
2023/11/12 10:38:18;;;;;;;4.60;2.57;;;;;;;;;;5115698;28;20441;-60
2023/11/12 10:40:58;;;;;;;2.50;2.30;;;;;;;;;;5115628;28;20438;-60
2023/11/12 10:43:27;;;;;;;3.00;2.80;;;;;;;;;;5115394;28;20519;-60
2023/11/12 10:45:58;;;;;;;3.10;2.90;;;;;;;;;;5115390;28;20438;-60
2023/11/12 10:48:28;;;;;;;2.70;2.50;;;;;;;;;;5115276;28;20464;-60
2023/11/12 10:50:55;;;;;;;2.67;2.47;;;;;;;;;;5115503;28;20541;-60
2023/11/12 10:53:24;;;;;;;3.30;2.73;;;;;;;;;;5115194;28;20487;-60
2023/11/12 10:55:52;;;;;;;3.53;3.23;;;;;;;;;;5115285;28;20847;-60
2023/11/12 10:58:20;;;;;;;3.80;3.50;;;;;;;;;;5115149;28;20809;-60
2023/11/12 11:00:48;;;;;;;2.77;2.60;;;;;;;;;;5115387;28;20529;-60
2023/11/12 11:03:15;;;;;;;2.37;2.23;;;;;;;;;;5115188;28;20441;-60
2023/11/12 11:05:43;;;;;;;3.13;2.93;;;;;;;;;;5115153;28;20437;-60
2023/11/12 11:08:11;;;;;;;4.33;3.97;;;;;;;;;;5115010;28;20541;-60
2023/11/12 11:10:38;;;;;;;3.70;3.30;;;;;;;;;;5114801;28;20846;-60
2023/11/12 11:13:05;;;;;;;3.30;3.00;;;;;;;;;;5114556;28;21046;-60
2023/11/12 11:15:45;;;;;;;3.57;2.80;;;;;;;;;;5114970;28;20533;-60
2023/11/12 11:18:33;;;;;;;3.47;3.27;;;;;;;;;;5114909;28;20524;-60
2023/11/12 11:21:13;;;;;;;3.50;3.30;;;;;;;;;;5114541;28;20449;-60
2023/11/12 11:23:41;;;;;;;3.90;3.60;;;;;;;;;;5114918;28;20449;-60
2023/11/12 11:26:27;;;;;;;3.80;3.50;;;;;;;;;;5114680;28;20448;-61
2023/11/12 11:29:13;;;;;;;4.40;4.00;;;;;;;;;;5114636;28;20473;-60
2023/11/12 11:31:41;;;;;;;3.83;3.63;;;;;;;;;;5114327;28;20532;-60
2023/11/12 11:34:10;;;;;;;5.00;4.70;;;;;;;;;;5114527;28;20481;-60
2023/11/12 11:36:39;;;;;;;3.77;3.47;;;;;;;;;;5114612;28;20538;-60
2023/11/12 11:39:28;;;;;;;4.00;3.70;;;;;;;;;;5114374;28;20468;-60
2023/11/12 11:42:14;;;;;;;4.27;4.00;;;;;;;;;;5114360;28;20449;-60
2023/11/12 11:44:42;;;;;;;4.77;4.20;;;;;;;;;;5114250;28;20469;-60
2023/11/12 11:47:11;;;;;;;4.50;4.10;;;;;;;;;;5114144;28;20442;-60
2023/11/12 11:49:39;;;;;;;4.43;4.13;;;;;;;;;;5114273;28;20948;-60
2023/11/12 11:52:07;;;;;;;5.67;5.27;;;;;;;;;;5114094;28;20936;-60
2023/11/12 11:54:34;;;;;;;8.87;8.17;;;;;;;;;;5114017;28;20437;-60
2023/11/12 11:57:02;;;;;;;6.17;5.77;;;;;;;;;;5114253;28;20441;-60
2023/11/12 11:59:31;;;;;;;5.30;4.80;;;;;;;;;;5113554;28;20445;-60
2023/11/12 12:01:59;;;;;;;5.03;4.73;;;;;;;;;;5114058;28;20448;-60
2023/11/12 12:04:27;;;;;;;4.80;4.43;;;;;;;;;;5113982;28;20533;-60
2023/11/12 12:06:55;;;;;;;4.93;4.53;;;;;;;;;;5113840;28;20484;-60
2023/11/12 12:09:24;;;;;;;5.50;5.00;;;;;;;;;;5113698;28;21062;-59
2023/11/12 12:11:52;;;;;;;5.20;4.80;;;;;;;;;;5113890;28;20519;-60
2023/11/12 12:14:20;;;;;;;6.40;5.97;;;;;;;;;;5113550;28;20567;-60
2023/11/12 12:16:47;;;;;;;6.43;6.00;;;;;;;;;;5113777;28;20956;-60
2023/11/12 12:19:18;;;;;;;7.13;6.43;;;;;;;;;;5113665;28;20441;-60
2023/11/12 12:21:45;;;;;;;6.83;6.30;;;;;;;;;;5113494;28;20479;-59
2023/11/12 12:24:12;;;;;;;6.93;6.23;;;;;;;;;;5113797;28;20445;-59
2023/11/12 12:26:41;;;;;;;6.63;6.13;;;;;;;;;;5113665;28;20528;-60
2023/11/12 12:29:18;;;;;;;7.10;6.53;;;;;;;;;;5113581;28;20442;-60
2023/11/12 12:31:45;;;;;;;7.00;6.40;;;;;;;;;;5113444;28;20452;-59
2023/11/12 12:34:16;;;;;;;7.37;6.77;;;;;;;;;;5113275;28;20560;-60
2023/11/12 12:36:53;;;;;;;7.23;6.63;;;;;;;;;;5113673;28;20441;-60
2023/11/12 12:39:20;;;;;;;8.20;7.40;;;;;;;;;;5113596;28;20948;-59
2023/11/12 12:41:48;;;;;;;7.83;7.13;;;;;;;;;;5113449;28;20528;-59
2023/11/12 12:44:23;;;;;;;8.10;6.67;;;;;;;;;;5113142;28;20468;-60
2023/11/12 12:46:51;;;;;;;7.13;5.83;;;;;;;;;;5113272;28;20441;-60
2023/11/12 12:49:30;;;;;;;5.73;5.23;;;;;;;;;;5113467;28;20442;-60
2023/11/12 12:51:57;;;;;;;7.13;6.10;;;;;;;;;;5113317;28;20783;-60
2023/11/12 12:54:26;;;;;;;5.67;5.20;;;;;;;;;;5113128;28;20576;-60
2023/11/12 12:56:54;;;;;;;5.47;4.87;;;;;;;;;;5113196;28;20442;-60
2023/11/12 12:59:21;;;;;;;5.00;4.70;;;;;;;;;;5113037;28;20536;-60
2023/11/12 13:01:48;;;;;;;5.97;5.57;;;;;;;;;;5113304;28;20441;-60
2023/11/12 13:04:17;;;;;;;5.90;5.50;;;;;;;;;;5113225;28;20442;-60
2023/11/12 13:06:44;;;;;;;5.67;5.17;;;;;;;;;;5113211;28;20894;-60
2023/11/12 13:09:16;;;;;;;5.27;4.87;;;;;;;;;;5113037;28;20469;-60
2023/11/12 13:11:43;;;;;;;6.00;5.40;;;;;;;;;;5115633;28;20540;-60
2023/11/12 13:14:12;;;;;;;5.07;4.67;;;;;;;;;;5117267;28;20915;-60
2023/11/12 13:16:40;;;;;;;4.93;4.63;;;;;;;;;;5117051;28;20473;-60
2023/11/12 13:19:11;;;;;;;5.87;4.80;;;;;;;;;;5117179;28;20448;-60
2023/11/12 13:21:38;;;;;;;5.07;4.67;;;;;;;;;;5117132;28;20445;-60
2023/11/12 13:24:09;;;;;;;5.20;4.73;;;;;;;;;;5116793;28;20473;-60
2023/11/12 13:26:36;;;;;;;6.00;5.50;;;;;;;;;;5117198;28;20454;-60
2023/11/12 13:29:04;;;;;;;7.30;5.80;;;;;;;;;;5117199;28;20837;-60
2023/11/12 13:31:32;;;;;;;5.83;5.43;;;;;;;;;;5117030;28;20449;-60
2023/11/12 13:33:59;;;;;;;5.50;5.10;;;;;;;;;;5116710;28;20512;-60
2023/11/12 13:36:26;;;;;;;5.37;4.93;;;;;;;;;;5116819;28;20869;-60
2023/11/12 13:38:53;;;;;;;5.80;5.30;;;;;;;;;;5116592;28;20502;-60
2023/11/12 13:41:21;;;;;;;6.23;5.73;;;;;;;;;;5116904;28;20491;-60
2023/11/12 13:43:48;;;;;;;7.23;5.10;;;;;;;;;;5116581;28;20863;-60
2023/11/12 13:46:15;;;;;;;6.53;5.93;;;;;;;;;;5116651;28;20464;-60
2023/11/12 13:48:43;;;;;;;5.40;4.90;;;;;;;;;;5116417;28;20458;-60
2023/11/12 13:51:11;;;;;;;4.90;4.50;;;;;;;;;;5116309;28;20499;-59
2023/11/12 13:53:40;;;;;;;5.20;4.70;;;;;;;;;;5116655;28;20567;-60
2023/11/12 13:56:07;;;;;;;5.40;5.00;;;;;;;;;;5116369;28;20448;-59
2023/11/12 13:58:35;;;;;;;4.53;4.10;;;;;;;;;;5116450;28;20449;-60
2023/11/12 14:01:02;;;;;;;4.93;4.23;;;;;;;;;;5116377;28;20437;-60
2023/11/12 14:03:28;;;;;;;5.50;4.83;;;;;;;;;;5116293;28;20527;-60
2023/11/12 14:05:57;;;;;;;4.67;4.37;;;;;;;;;;5116124;28;20817;-60
2023/11/12 14:08:24;;;;;;;4.60;4.30;;;;;;;;;;5116271;28;20437;-60
2023/11/12 14:10:51;;;;;;;4.53;4.20;;;;;;;;;;5116091;28;20936;-60
2023/11/12 14:13:18;;;;;;;6.30;4.33;;;;;;;;;;5116076;28;20554;-60
2023/11/12 14:15:48;;;;;;;4.77;4.47;;;;;;;;;;5115930;28;20446;-60
2023/11/12 14:18:15;;;;;;;8.57;4.97;;;;;;;;;;5115925;28;20536;-60
2023/11/12 14:20:43;;;;;;;5.10;4.60;;;;;;;;;;5116169;28;20446;-60
2023/11/12 14:23:11;;;;;;;5.50;4.47;;;;;;;;;;5115464;28;20537;-59
2023/11/12 14:25:39;;;;;;;6.77;5.30;;;;;;;;;;5116005;28;20540;-60
2023/11/12 14:28:09;;;;;;;5.00;4.60;;;;;;;;;;5115848;28;20457;-60
2023/11/12 14:30:37;;;;;;;4.23;3.93;;;;;;;;;;5115756;28;20537;-59
2023/11/12 14:33:06;;;;;;;5.17;3.93;;;;;;;;;;5115454;28;20811;-60
2023/11/12 14:35:33;;;;;;;4.57;4.17;;;;;;;;;;5115837;28;20473;-58
2023/11/12 14:38:00;;;;;;;4.33;3.93;;;;;;;;;;5115692;28;20464;-58
2023/11/12 14:40:29;;;;;;;4.60;4.30;;;;;;;;;;5115551;28;20917;-58
2023/11/12 14:42:57;;;;;;;5.20;4.80;;;;;;;;;;5115562;28;20491;-58
2023/11/12 14:45:24;;;;;;;5.43;5.03;;;;;;;;;;5115197;28;20445;-58
2023/11/12 14:47:52;;;;;;;4.73;4.40;;;;;;;;;;5115587;28;20473;-59